This is the latest recevied weather packets stored in our database for station/object N7JP. If no packets are shown the sender has not sent any weather packets the latest 10 day(s).
| Time | Temp. | Humidity | Pressure | Rain* | Wind** | Luminosity | Snow |
|---|---|---|---|---|---|---|---|
| 1777782788 | 15° C | 70% | 1008.8 hPa | 0 mm | - | - | - |
| 1777781881 | 15° C | 70% | 1008.7 hPa | 0 mm | - | - | - |
| 1777780973 | 15.56° C | 71% | 1008.6 hPa | 0 mm | - | - | - |
| 1777780046 | 15.56° C | 69% | 1008.4 hPa | 0 mm | - | - | - |
| 1777779123 | 16.67° C | 65% | 1008.3 hPa | 0 mm | - | - | - |
| 1777778223 | 17.78° C | 61% | 1008.1 hPa | 0 mm | - | - | - |
| 1777777322 | 18.33° C | 57% | 1008.1 hPa | 0 mm | - | - | - |
| 1777776419 | 18.89° C | 57% | 1008 hPa | 0 mm | - | - | - |
| 1777774609 | 20° C | 52% | 1008 hPa | 0 mm | - | - | - |
| 1777773686 | 20° C | 51% | 1008.1 hPa | 0 mm | - | - | - |
| 1777772783 | 21.11° C | 53% | 1008.2 hPa | 0 mm | - | - | - |
| 1777770986 | 21.11° C | 52% | 1008.4 hPa | 0 mm | - | - | - |
| 1777770058 | 21.11° C | 56% | 1008.4 hPa | 0 mm | - | - | - |
| 1777769156 | 21.11° C | 54% | 1008.5 hPa | 0 mm | - | - | - |
| 1777768253 | 21.67° C | 51% | 1008.4 hPa | 0 mm | - | - | - |
| 1777767353 | 21.67° C | 51% | 1008.4 hPa | 0 mm | - | - | - |
| 1777766458 | 21.11° C | 49% | 1008.7 hPa | 0 mm | - | - | - |
| 1777765527 | 21.11° C | 48% | 1008.8 hPa | 0 mm | - | - | - |
| 1777764613 | 21.11° C | 51% | 1009 hPa | 0 mm | - | - | - |
| 1777763712 | 21.11° C | 55% | 1009.2 hPa | 0 mm | - | - | - |
| 1777762796 | 20° C | 59% | 1009.4 hPa | 0 mm | - | - | - |
| 1777761874 | 20° C | 61% | 1009.6 hPa | 0 mm | - | - | - |
| 1777760953 | 20° C | 64% | 1009.8 hPa | 0 mm | - | - | - |
| 1777760047 | 19.44° C | 64% | 1010.1 hPa | 0 mm | - | - | - |
| 1777759147 | 20° C | 62% | 1010.1 hPa | 0 mm | - | - | - |
* Rain latest hour (hover to see other rain measurements)
** Current wind speed in m/s (hover to see current wind gust speed)